sensor_id;sensor_type;location;lat;lon;timestamp;pressure;altitude;pressure_sealevel;temperature;humidity
30338;BME280;17143;51.888;5.408;2023-02-23T00:05:51;101120.44;;;9.03;100.00
30338;BME280;17143;51.888;5.408;2023-02-23T00:20:57;101119.53;;;9.03;100.00
30338;BME280;17143;51.888;5.408;2023-02-23T00:36:04;101123.84;;;9.02;100.00
30338;BME280;17143;51.888;5.408;2023-02-23T00:51:06;101117.03;;;9.04;100.00
30338;BME280;17143;51.888;5.408;2023-02-23T01:06:11;101121.63;;;8.95;100.00
30338;BME280;17143;51.888;5.408;2023-02-23T01:21:19;101115.88;;;8.86;100.00
30338;BME280;17143;51.888;5.408;2023-02-23T01:36:21;101121.84;;;8.85;100.00
30338;BME280;17143;51.888;5.408;2023-02-23T01:51:26;101133.03;;;8.84;100.00
30338;BME280;17143;51.888;5.408;2023-02-23T02:06:28;101129.63;;;8.85;100.00
30338;BME280;17143;51.888;5.408;2023-02-23T02:37:17;101133.44;;;8.77;100.00
30338;BME280;17143;51.888;5.408;2023-02-23T02:52:24;101135.81;;;8.74;100.00
30338;BME280;17143;51.888;5.408;2023-02-23T03:07:35;101136.44;;;8.70;100.00
30338;BME280;17143;51.888;5.408;2023-02-23T03:22:48;101139.72;;;8.68;100.00
30338;BME280;17143;51.888;5.408;2023-02-23T03:37:59;101143.03;;;8.65;100.00
30338;BME280;17143;51.888;5.408;2023-02-23T03:53:05;101144.59;;;8.63;100.00
30338;BME280;17143;51.888;5.408;2023-02-23T04:08:12;101162.41;;;8.57;100.00
30338;BME280;17143;51.888;5.408;2023-02-23T04:23:15;101168.38;;;8.56;100.00
30338;BME280;17143;51.888;5.408;2023-02-23T04:38:17;101169.19;;;8.55;100.00
30338;BME280;17143;51.888;5.408;2023-02-23T04:53:19;101182.25;;;8.56;100.00
30338;BME280;17143;51.888;5.408;2023-02-23T05:08:21;101178.75;;;8.56;100.00
30338;BME280;17143;51.888;5.408;2023-02-23T05:23:23;101199.94;;;8.49;100.00
30338;BME280;17143;51.888;5.408;2023-02-23T05:38:25;101198.81;;;8.45;100.00
30338;BME280;17143;51.888;5.408;2023-02-23T05:53:27;101200.50;;;8.45;100.00
30338;BME280;17143;51.888;5.408;2023-02-23T06:08:29;101215.19;;;8.44;100.00
30338;BME280;17143;51.888;5.408;2023-02-23T06:23:32;101217.09;;;8.47;100.00
30338;BME280;17143;51.888;5.408;2023-02-23T06:38:34;101235.38;;;8.48;100.00
30338;BME280;17143;51.888;5.408;2023-02-23T06:53:36;101246.44;;;8.46;100.00
30338;BME280;17143;51.888;5.408;2023-02-23T07:08:38;101265.63;;;8.48;100.00
30338;BME280;17143;51.888;5.408;2023-02-23T07:23:40;101280.03;;;8.56;100.00
30338;BME280;17143;51.888;5.408;2023-02-23T07:38:42;101291.28;;;8.68;100.00
30338;BME280;17143;51.888;5.408;2023-02-23T07:53:44;101323.66;;;8.73;100.00
30338;BME280;17143;51.888;5.408;2023-02-23T08:08:46;101338.31;;;8.73;100.00
30338;BME280;17143;51.888;5.408;2023-02-23T08:23:48;101352.00;;;8.70;100.00
30338;BME280;17143;51.888;5.408;2023-02-23T08:38:50;101362.59;;;8.73;100.00
30338;BME280;17143;51.888;5.408;2023-02-23T08:53:52;101370.66;;;8.89;100.00
30338;BME280;17143;51.888;5.408;2023-02-23T09:08:55;101383.13;;;9.19;100.00
30338;BME280;17143;51.888;5.408;2023-02-23T09:23:57;101394.88;;;9.26;100.00
30338;BME280;17143;51.888;5.408;2023-02-23T09:38:59;101413.94;;;9.27;100.00
30338;BME280;17143;51.888;5.408;2023-02-23T09:54:02;101424.75;;;9.33;100.00
30338;BME280;17143;51.888;5.408;2023-02-23T10:09:14;101419.59;;;9.46;100.00
30338;BME280;17143;51.888;5.408;2023-02-23T10:24:21;101415.25;;;9.71;100.00
30338;BME280;17143;51.888;5.408;2023-02-23T10:39:26;101435.66;;;9.78;100.00
30338;BME280;17143;51.888;5.408;2023-02-23T10:54:38;101446.06;;;10.04;100.00
30338;BME280;17143;51.888;5.408;2023-02-23T11:09:40;101445.91;;;10.14;100.00
30338;BME280;17143;51.888;5.408;2023-02-23T11:24:42;101436.72;;;10.32;100.00
30338;BME280;17143;51.888;5.408;2023-02-23T11:39:51;101435.38;;;10.39;100.00
30338;BME280;17143;51.888;5.408;2023-02-23T11:54:56;101451.50;;;10.47;100.00
30338;BME280;17143;51.888;5.408;2023-02-23T12:10:02;101425.03;;;10.40;100.00
30338;BME280;17143;51.888;5.408;2023-02-23T12:25:22;101426.25;;;10.46;100.00
30338;BME280;17143;51.888;5.408;2023-02-23T12:40:27;101440.28;;;10.48;100.00
30338;BME280;17143;51.888;5.408;2023-02-23T12:55:35;101436.88;;;10.22;100.00
30338;BME280;17143;51.888;5.408;2023-02-23T13:10:49;101441.47;;;9.87;100.00
30338;BME280;17143;51.888;5.408;2023-02-23T13:25:57;101428.84;;;9.80;100.00
30338;BME280;17143;51.888;5.408;2023-02-23T13:41:08;101424.97;;;9.87;100.00
30338;BME280;17143;51.888;5.408;2023-02-23T13:56:16;101443.69;;;10.07;100.00
30338;BME280;17143;51.888;5.408;2023-02-23T14:11:45;101440.09;;;10.45;100.00
30338;BME280;17143;51.888;5.408;2023-02-23T14:42:26;101453.72;;;10.14;100.00
30338;BME280;17143;51.888;5.408;2023-02-23T14:57:29;101445.13;;;10.15;100.00
30338;BME280;17143;51.888;5.408;2023-02-23T15:12:35;101442.06;;;9.96;100.00
30338;BME280;17143;51.888;5.408;2023-02-23T15:27:40;101451.88;;;9.87;100.00
30338;BME280;17143;51.888;5.408;2023-02-23T15:42:45;101461.69;;;9.78;100.00
30338;BME280;17143;51.888;5.408;2023-02-23T15:57:54;101465.97;;;9.77;100.00
30338;BME280;17143;51.888;5.408;2023-02-23T16:12:59;101460.38;;;9.71;100.00
30338;BME280;17143;51.888;5.408;2023-02-23T16:28:03;101475.38;;;9.75;100.00
30338;BME280;17143;51.888;5.408;2023-02-23T16:43:08;101479.47;;;9.09;100.00
30338;BME280;17143;51.888;5.408;2023-02-23T16:58:15;101485.53;;;8.85;100.00
30338;BME280;17143;51.888;5.408;2023-02-23T17:13:20;101496.06;;;8.75;100.00
30338;BME280;17143;51.888;5.408;2023-02-23T17:28:22;101504.47;;;8.48;100.00
30338;BME280;17143;51.888;5.408;2023-02-23T17:43:24;101515.09;;;8.28;100.00
30338;BME280;17143;51.888;5.408;2023-02-23T17:58:27;101525.44;;;8.05;100.00
30338;BME280;17143;51.888;5.408;2023-02-23T18:13:29;101536.00;;;7.73;100.00
30338;BME280;17143;51.888;5.408;2023-02-23T18:28:32;101541.84;;;7.70;100.00
30338;BME280;17143;51.888;5.408;2023-02-23T18:43:34;101556.41;;;7.47;100.00
30338;BME280;17143;51.888;5.408;2023-02-23T18:58:36;101583.88;;;7.33;100.00
30338;BME280;17143;51.888;5.408;2023-02-23T19:13:38;101577.47;;;7.18;100.00
30338;BME280;17143;51.888;5.408;2023-02-23T19:28:40;101588.22;;;7.12;100.00
30338;BME280;17143;51.888;5.408;2023-02-23T19:43:43;101576.25;;;7.03;100.00
30338;BME280;17143;51.888;5.408;2023-02-23T19:58:45;101573.22;;;6.87;100.00
30338;BME280;17143;51.888;5.408;2023-02-23T20:13:47;101581.84;;;6.65;100.00
30338;BME280;17143;51.888;5.408;2023-02-23T20:28:49;101582.19;;;6.48;100.00
30338;BME280;17143;51.888;5.408;2023-02-23T20:43:51;101580.91;;;6.33;100.00
30338;BME280;17143;51.888;5.408;2023-02-23T20:58:53;101568.78;;;6.12;100.00
30338;BME280;17143;51.888;5.408;2023-02-23T21:13:55;101557.97;;;5.86;100.00
30338;BME280;17143;51.888;5.408;2023-02-23T21:28:57;101542.16;;;5.63;100.00
30338;BME280;17143;51.888;5.408;2023-02-23T21:44:00;101555.84;;;5.21;100.00
30338;BME280;17143;51.888;5.408;2023-02-23T21:59:03;101551.63;;;5.03;100.00
30338;BME280;17143;51.888;5.408;2023-02-23T22:14:06;101564.84;;;4.77;100.00
30338;BME280;17143;51.888;5.408;2023-02-23T22:29:09;101561.25;;;4.75;100.00
30338;BME280;17143;51.888;5.408;2023-02-23T22:44:13;101549.06;;;4.64;100.00
30338;BME280;17143;51.888;5.408;2023-02-23T22:59:16;101544.22;;;4.49;100.00
30338;BME280;17143;51.888;5.408;2023-02-23T23:14:18;101528.38;;;4.25;100.00
30338;BME280;17143;51.888;5.408;2023-02-23T23:29:20;101507.00;;;4.08;100.00
30338;BME280;17143;51.888;5.408;2023-02-23T23:44:24;101493.78;;;3.95;100.00
30338;BME280;17143;51.888;5.408;2023-02-23T23:59:26;101476.59;;;3.85;100.00
